createdAt,value
2022-11-26T00:01:00.199Z,6.54
2022-11-26T00:03:26.562Z,6.50
2022-11-26T00:05:56.628Z,6.47
2022-11-26T00:08:30.963Z,6.47
2022-11-26T00:10:57.301Z,6.46
2022-11-26T00:13:26.563Z,6.51
2022-11-26T00:15:53.272Z,6.57
2022-11-26T00:18:20.478Z,6.57
2022-11-26T00:20:53.115Z,6.52
2022-11-26T00:23:24.500Z,6.54
2022-11-26T00:25:55.015Z,6.52
2022-11-26T00:28:27.176Z,6.55
2022-11-26T00:30:56.035Z,6.49
2022-11-26T00:33:23.032Z,6.46
2022-11-26T00:35:52.253Z,6.41
2022-11-26T00:38:21.077Z,6.40
2022-11-26T00:40:47.774Z,6.36
2022-11-26T00:43:16.046Z,6.34
2022-11-26T00:45:42.534Z,6.34
2022-11-26T00:48:08.938Z,6.30
2022-11-26T00:50:43.519Z,6.34
2022-11-26T00:53:13.751Z,6.37
2022-11-26T00:55:43.634Z,6.23
2022-11-26T00:58:22.152Z,6.25
2022-11-26T01:00:48.945Z,6.24
2022-11-26T01:03:15.378Z,6.30
2022-11-26T01:05:41.699Z,6.32
2022-11-26T01:08:34.742Z,6.37
2022-11-26T01:11:03.213Z,6.32
2022-11-26T01:13:30.598Z,6.34
2022-11-26T01:15:58.472Z,6.32
2022-11-26T01:18:24.988Z,6.41
2022-11-26T01:20:51.659Z,6.41
2022-11-26T01:23:19.079Z,6.45
2022-11-26T01:25:46.939Z,6.52
2022-11-26T01:28:18.054Z,6.52
2022-11-26T01:30:45.241Z,6.47
2022-11-26T01:33:11.566Z,6.48
2022-11-26T01:35:37.956Z,6.47
2022-11-26T01:38:04.509Z,6.44
2022-11-26T01:40:36.580Z,6.54
2022-11-26T01:43:15.153Z,6.47
2022-11-26T01:45:41.524Z,6.45
2022-11-26T01:48:33.565Z,6.33
2022-11-26T01:51:10.100Z,6.38
2022-11-26T01:53:47.585Z,6.36
2022-11-26T01:56:17.350Z,6.40
2022-11-26T01:58:48.872Z,6.33
2022-11-26T02:01:15.725Z,6.33
2022-11-26T02:03:53.221Z,6.33
2022-11-26T02:06:26.066Z,6.38
2022-11-26T02:08:53.412Z,6.36
2022-11-26T02:11:23.322Z,6.38
2022-11-26T02:13:53.970Z,6.36
2022-11-26T02:16:56.569Z,6.34
2022-11-26T02:19:42.783Z,6.38
2022-11-26T02:22:38.978Z,6.29
2022-11-26T02:25:30.365Z,6.18
2022-11-26T02:28:05.704Z,6.04
2022-11-26T02:30:36.802Z,6.00
2022-11-26T02:33:22.044Z,5.92
2022-11-26T02:36:01.521Z,5.83
2022-11-26T02:38:30.423Z,5.74
2022-11-26T02:40:57.287Z,5.73
2022-11-26T02:43:25.389Z,5.74
2022-11-26T02:46:01.391Z,5.76
2022-11-26T02:48:34.436Z,5.74
2022-11-26T02:51:07.136Z,5.76
2022-11-26T02:53:35.423Z,5.77
2022-11-26T02:56:19.374Z,5.76
2022-11-26T02:58:45.811Z,5.78
2022-11-26T03:01:19.209Z,5.78
2022-11-26T03:03:50.680Z,5.80
2022-11-26T03:06:18.911Z,5.85
2022-11-26T03:08:45.678Z,5.89
2022-11-26T03:11:12.593Z,5.88
2022-11-26T03:13:39.010Z,5.87
2022-11-26T03:16:05.437Z,5.85
2022-11-26T03:18:31.792Z,5.75
2022-11-26T03:20:58.157Z,5.67
2022-11-26T03:23:24.539Z,5.65
2022-11-26T03:25:50.894Z,5.55
2022-11-26T03:28:17.334Z,5.47
2022-11-26T03:30:43.669Z,5.40
2022-11-26T03:33:10.109Z,5.45
2022-11-26T03:35:36.468Z,5.50
2022-11-26T03:38:02.859Z,5.53
2022-11-26T03:40:29.230Z,5.36
2022-11-26T03:42:55.634Z,5.36
2022-11-26T03:45:22.085Z,5.33
2022-11-26T03:47:48.459Z,5.27
2022-11-26T03:50:14.945Z,5.26
2022-11-26T03:52:41.318Z,5.26
2022-11-26T03:55:08.102Z,5.19
2022-11-26T03:57:34.557Z,5.24
2022-11-26T04:00:00.928Z,5.19
2022-11-26T04:02:27.373Z,5.22
2022-11-26T04:04:53.778Z,5.22
2022-11-26T04:07:20.247Z,5.31
2022-11-26T04:09:46.609Z,5.31
2022-11-26T04:12:13.004Z,5.33
2022-11-26T04:14:39.580Z,5.38
2022-11-26T04:17:06.102Z,5.35
2022-11-26T04:19:32.477Z,5.33
2022-11-26T04:21:58.849Z,5.33
2022-11-26T04:24:25.362Z,5.32
2022-11-26T04:26:51.728Z,5.31
2022-11-26T04:29:18.091Z,5.27
2022-11-26T04:31:44.497Z,5.42
2022-11-26T04:34:10.955Z,5.46
2022-11-26T04:36:39.194Z,5.50
2022-11-26T04:39:05.642Z,5.57
2022-11-26T04:41:31.983Z,5.48
2022-11-26T04:43:58.339Z,5.55
2022-11-26T04:46:24.770Z,5.64
2022-11-26T04:48:51.128Z,5.64
2022-11-26T04:51:17.518Z,5.56
2022-11-26T04:53:43.871Z,5.57
2022-11-26T04:56:10.234Z,5.62
2022-11-26T04:58:36.623Z,5.71
2022-11-26T05:01:03.174Z,5.81
2022-11-26T05:03:29.905Z,5.85
2022-11-26T05:05:56.302Z,5.87
2022-11-26T05:08:22.674Z,5.90
2022-11-26T05:10:54.067Z,5.88
2022-11-26T05:13:20.658Z,5.86
2022-11-26T05:15:47.360Z,5.86
2022-11-26T05:18:13.810Z,5.79
2022-11-26T05:20:40.186Z,5.82
2022-11-26T05:23:06.544Z,5.78
2022-11-26T05:25:32.889Z,5.75
2022-11-26T05:27:59.291Z,5.67
2022-11-26T05:30:25.691Z,5.63
2022-11-26T05:32:52.084Z,5.64
2022-11-26T05:35:18.587Z,5.68
2022-11-26T05:37:45.150Z,5.63
2022-11-26T05:40:12.007Z,5.63
2022-11-26T05:42:38.981Z,5.64
2022-11-26T05:45:06.302Z,5.62
2022-11-26T05:47:32.665Z,5.65
2022-11-26T05:49:59.016Z,5.67
2022-11-26T05:52:25.435Z,5.67
2022-11-26T05:54:51.850Z,5.69
2022-11-26T05:57:19.942Z,5.83
2022-11-26T05:59:49.054Z,5.80
2022-11-26T06:02:15.475Z,5.81
2022-11-26T06:04:43.069Z,5.75
2022-11-26T06:07:10.192Z,5.89
2022-11-26T06:09:37.259Z,5.90
2022-11-26T06:12:04.182Z,5.95
2022-11-26T06:14:30.541Z,5.90
2022-11-26T06:16:56.927Z,5.86
2022-11-26T06:19:23.393Z,5.81
2022-11-26T06:21:49.930Z,5.76
2022-11-26T06:24:16.281Z,5.77
2022-11-26T06:26:42.635Z,5.69
2022-11-26T06:29:08.991Z,5.76
2022-11-26T06:31:35.364Z,5.67
2022-11-26T06:34:01.804Z,5.75
2022-11-26T06:36:28.159Z,5.69
2022-11-26T06:38:54.573Z,5.70
2022-11-26T06:41:20.962Z,5.70
2022-11-26T06:43:47.425Z,5.69
2022-11-26T06:46:14.217Z,5.60
2022-11-26T06:48:41.121Z,5.61
2022-11-26T06:51:13.022Z,5.63
2022-11-26T06:53:39.805Z,5.64
2022-11-26T06:56:08.429Z,5.60
2022-11-26T06:58:34.858Z,5.49
2022-11-26T07:01:11.028Z,5.42
2022-11-26T07:03:37.605Z,5.35
2022-11-26T07:06:04.309Z,5.24
2022-11-26T07:08:30.756Z,5.16
2022-11-26T07:11:04.045Z,5.09
2022-11-26T07:13:30.455Z,4.98
2022-11-26T07:16:02.746Z,4.89
2022-11-26T07:18:29.623Z,4.87
2022-11-26T07:20:56.643Z,4.90
2022-11-26T07:23:23.032Z,4.87
2022-11-26T07:25:49.426Z,4.88
2022-11-26T07:28:15.792Z,4.93
2022-11-26T07:30:42.202Z,4.94
2022-11-26T07:33:08.635Z,4.98
2022-11-26T07:35:34.995Z,4.97
2022-11-26T07:38:01.408Z,4.94
2022-11-26T07:40:27.821Z,4.89
2022-11-26T07:42:54.253Z,4.90
2022-11-26T07:45:24.132Z,4.94
2022-11-26T07:47:50.485Z,4.96
2022-11-26T07:50:17.039Z,5.07
2022-11-26T07:52:43.417Z,5.07
2022-11-26T07:55:12.703Z,5.14
2022-11-26T07:57:39.255Z,5.12
2022-11-26T08:00:06.445Z,5.30
2022-11-26T08:02:38.350Z,5.40
2022-11-26T08:05:05.410Z,5.50
2022-11-26T08:07:31.944Z,5.56
2022-11-26T08:09:58.371Z,5.61
2022-11-26T08:12:24.850Z,5.71
2022-11-26T08:14:51.229Z,5.75
2022-11-26T08:17:17.589Z,5.78
2022-11-26T08:19:44.001Z,5.80
2022-11-26T08:22:10.439Z,5.90
2022-11-26T08:24:37.041Z,5.99
2022-11-26T08:27:03.665Z,6.12
2022-11-26T08:29:30.036Z,6.15
2022-11-26T08:31:56.660Z,6.21
2022-11-26T08:34:23.078Z,6.28
2022-11-26T08:36:49.444Z,6.39
2022-11-26T08:39:17.807Z,6.39
2022-11-26T08:41:50.309Z,6.48
2022-11-26T08:44:19.475Z,6.51
2022-11-26T08:46:45.898Z,6.64
2022-11-26T08:49:13.452Z,6.73
2022-11-26T08:51:39.903Z,6.79
2022-11-26T08:54:06.715Z,6.89
2022-11-26T08:56:34.257Z,6.87
2022-11-26T08:59:00.695Z,6.90
2022-11-26T09:01:30.048Z,7.01
2022-11-26T09:03:59.082Z,7.09
2022-11-26T09:06:27.941Z,7.13
2022-11-26T09:09:12.716Z,7.20
2022-11-26T09:11:45.375Z,7.25
2022-11-26T09:14:12.847Z,7.44
2022-11-26T09:16:39.927Z,7.58
2022-11-26T09:19:07.509Z,7.59
2022-11-26T09:21:35.124Z,7.67
2022-11-26T09:24:02.083Z,7.68
2022-11-26T09:26:31.133Z,7.76
2022-11-26T09:28:57.747Z,7.79
2022-11-26T09:31:24.350Z,7.71
2022-11-26T09:33:51.342Z,7.79
2022-11-26T09:36:18.726Z,7.83
2022-11-26T09:38:45.691Z,7.88
2022-11-26T09:41:46.056Z,7.99
2022-11-26T09:44:47.391Z,8.08
2022-11-26T09:47:45.524Z,8.26
2022-11-26T09:50:14.704Z,8.30
2022-11-26T09:52:55.418Z,8.41
2022-11-26T09:55:33.552Z,8.54
2022-11-26T09:58:26.590Z,8.64
2022-11-26T10:00:57.991Z,8.75
2022-11-26T10:03:31.752Z,8.80
2022-11-26T10:06:02.027Z,8.89
2022-11-26T10:08:45.529Z,8.87
2022-11-26T10:11:36.672Z,8.87
2022-11-26T10:14:30.799Z,8.89
2022-11-26T10:17:12.327Z,8.89
2022-11-26T10:20:00.072Z,8.96
2022-11-26T10:22:32.317Z,8.91
2022-11-26T10:24:59.921Z,8.84
2022-11-26T10:27:30.765Z,8.80
2022-11-26T10:30:20.508Z,8.81
2022-11-26T10:32:49.762Z,8.79
2022-11-26T10:35:21.520Z,8.90
2022-11-26T10:37:48.976Z,8.95
2022-11-26T10:40:26.786Z,8.97
2022-11-26T10:43:08.462Z,8.99
2022-11-26T10:45:36.762Z,8.99
2022-11-26T10:48:21.806Z,9.10
2022-11-26T10:50:57.909Z,9.22
2022-11-26T10:53:26.078Z,9.23
2022-11-26T10:55:56.900Z,9.32
2022-11-26T10:58:42.567Z,9.45
2022-11-26T11:01:09.881Z,9.41
2022-11-26T11:04:08.838Z,9.48
2022-11-26T11:06:40.773Z,9.48
2022-11-26T11:09:28.366Z,9.55
2022-11-26T11:12:13.286Z,9.64
2022-11-26T11:14:43.334Z,9.57
2022-11-26T11:17:33.423Z,9.61
2022-11-26T11:20:14.516Z,9.68
2022-11-26T11:22:45.474Z,9.75
2022-11-26T11:25:23.651Z,9.73
2022-11-26T11:27:50.769Z,9.82
2022-11-26T11:30:29.252Z,9.79
2022-11-26T11:32:57.406Z,9.69
2022-11-26T11:35:31.436Z,9.74
2022-11-26T11:37:58.914Z,9.79
2022-11-26T11:40:29.045Z,9.76
2022-11-26T11:43:04.058Z,9.88
2022-11-26T11:45:34.843Z,9.95
2022-11-26T11:48:24.566Z,9.97
2022-11-26T11:50:58.081Z,9.91
2022-11-26T11:53:47.334Z,9.95
2022-11-26T11:56:25.962Z,10.02
2022-11-26T11:58:52.285Z,9.94
2022-11-26T12:01:44.111Z,9.87
2022-11-26T12:04:43.085Z,9.85
2022-11-26T12:07:31.627Z,9.99
2022-11-26T12:10:10.243Z,9.95
2022-11-26T12:12:42.227Z,9.98
2022-11-26T12:15:33.569Z,10.04
2022-11-26T12:18:41.012Z,10.06
2022-11-26T12:21:21.542Z,9.99
2022-11-26T12:24:11.397Z,9.87
2022-11-26T12:26:48.377Z,9.84
2022-11-26T12:29:25.720Z,9.91
2022-11-26T12:32:02.272Z,9.94
2022-11-26T12:34:34.734Z,9.76
2022-11-26T12:37:11.024Z,9.80
2022-11-26T12:39:53.675Z,9.90
2022-11-26T12:42:45.148Z,9.85
2022-11-26T12:45:38.736Z,9.83
2022-11-26T12:48:26.859Z,9.91
2022-11-26T12:51:06.584Z,9.89
2022-11-26T12:53:49.330Z,9.86
2022-11-26T12:56:30.804Z,9.75
2022-11-26T12:59:13.246Z,9.71
2022-11-26T13:01:39.762Z,9.74
2022-11-26T13:04:36.325Z,9.80
2022-11-26T13:07:00.544Z,9.80
2022-11-26T13:09:45.534Z,9.83
2022-11-26T13:12:37.420Z,9.92
2022-11-26T13:15:35.777Z,9.91
2022-11-26T13:18:04.426Z,9.86
2022-11-26T13:20:44.002Z,9.76
2022-11-26T13:23:38.092Z,9.79
2022-11-26T13:26:26.322Z,9.74
2022-11-26T13:29:13.981Z,9.70
2022-11-26T13:31:59.241Z,9.73
2022-11-26T13:34:38.470Z,9.80
2022-11-26T13:37:14.430Z,9.83
2022-11-26T13:40:25.522Z,9.88
2022-11-26T13:43:30.482Z,9.77
2022-11-26T13:46:16.453Z,9.84
2022-11-26T13:48:57.448Z,9.84
2022-11-26T13:51:32.982Z,9.90
2022-11-26T13:54:09.376Z,9.94
2022-11-26T13:56:37.516Z,9.88
2022-11-26T13:59:26.824Z,9.83
2022-11-26T14:01:55.280Z,9.92
2022-11-26T14:04:24.707Z,9.88
2022-11-26T14:07:06.339Z,9.86
2022-11-26T14:09:41.991Z,9.98
2022-11-26T14:12:12.832Z,9.95
2022-11-26T14:14:48.714Z,10.00
2022-11-26T14:17:22.734Z,9.90
2022-11-26T14:19:49.021Z,9.90
2022-11-26T14:22:21.496Z,9.84
2022-11-26T14:24:48.097Z,9.86
2022-11-26T14:27:19.406Z,9.93
2022-11-26T14:30:07.401Z,9.87
2022-11-26T14:32:39.628Z,9.89
2022-11-26T14:35:25.282Z,9.86
2022-11-26T14:37:57.776Z,9.89
2022-11-26T14:40:41.978Z,9.93
2022-11-26T14:43:19.324Z,9.99
2022-11-26T14:45:48.653Z,10.06
2022-11-26T14:48:26.541Z,9.93
2022-11-26T14:50:54.869Z,9.92
2022-11-26T14:53:23.652Z,9.88
2022-11-26T14:55:51.733Z,9.89
2022-11-26T14:58:29.575Z,9.82
2022-11-26T15:01:05.835Z,9.79
2022-11-26T15:03:32.424Z,9.73
2022-11-26T15:05:58.820Z,9.78
2022-11-26T15:08:26.961Z,9.76
2022-11-26T15:11:06.556Z,9.71
2022-11-26T15:13:41.351Z,9.64
2022-11-26T15:16:26.042Z,9.65
2022-11-26T15:18:54.579Z,9.62
2022-11-26T15:21:24.938Z,9.57
2022-11-26T15:23:53.330Z,9.55
2022-11-26T15:26:24.966Z,9.58
2022-11-26T15:28:51.331Z,9.60
2022-11-26T15:31:17.845Z,9.54
2022-11-26T15:33:45.206Z,9.50
2022-11-26T15:36:17.132Z,9.47
2022-11-26T15:39:05.974Z,9.32
2022-11-26T15:41:42.282Z,9.34
2022-11-26T15:44:22.160Z,9.25
2022-11-26T15:46:52.300Z,9.20
2022-11-26T15:49:22.617Z,9.19
2022-11-26T15:51:53.437Z,9.22
2022-11-26T15:54:38.424Z,9.18
2022-11-26T15:57:39.927Z,9.15
2022-11-26T16:00:35.657Z,9.14
2022-11-26T16:03:02.826Z,9.13
2022-11-26T16:05:39.222Z,9.09
2022-11-26T16:08:23.654Z,9.04
2022-11-26T16:11:02.578Z,8.97
2022-11-26T16:13:34.530Z,8.89
2022-11-26T16:16:08.872Z,8.86
2022-11-26T16:18:54.078Z,8.84
2022-11-26T16:21:24.268Z,8.76
2022-11-26T16:24:22.248Z,8.80
2022-11-26T16:27:17.740Z,8.78
2022-11-26T16:29:45.246Z,8.69
2022-11-26T16:32:12.695Z,8.74
2022-11-26T16:34:39.623Z,8.67
2022-11-26T16:37:29.230Z,8.61
2022-11-26T16:40:14.351Z,8.59
2022-11-26T16:42:40.956Z,8.56
2022-11-26T16:45:09.004Z,8.55
2022-11-26T16:47:39.279Z,8.51
2022-11-26T16:50:13.379Z,8.46
2022-11-26T16:52:41.279Z,8.38
2022-11-26T16:55:12.227Z,8.43
2022-11-26T16:57:38.652Z,8.36
2022-11-26T17:00:09.553Z,8.37
2022-11-26T17:02:36.031Z,8.41
2022-11-26T17:05:02.589Z,8.40
2022-11-26T17:07:40.737Z,8.41
2022-11-26T17:10:10.926Z,8.34
2022-11-26T17:12:37.252Z,8.26
2022-11-26T17:15:03.947Z,8.30
2022-11-26T17:17:30.382Z,8.29
2022-11-26T17:19:56.823Z,8.25
2022-11-26T17:22:26.001Z,8.18
2022-11-26T17:24:52.473Z,8.16
2022-11-26T17:27:20.839Z,8.15
2022-11-26T17:29:47.533Z,8.17
2022-11-26T17:32:16.987Z,8.13
2022-11-26T17:34:44.761Z,8.08
2022-11-26T17:37:19.645Z,7.96
2022-11-26T17:39:46.026Z,7.91
2022-11-26T17:42:12.361Z,7.90
2022-11-26T17:44:38.723Z,7.91
2022-11-26T17:47:17.733Z,7.87
2022-11-26T17:49:45.259Z,7.83
2022-11-26T17:52:12.157Z,7.72
2022-11-26T17:54:38.744Z,7.77
2022-11-26T17:57:05.145Z,7.70
2022-11-26T17:59:32.522Z,7.70
2022-11-26T18:01:59.045Z,7.61
2022-11-26T18:04:25.443Z,7.59
2022-11-26T18:07:06.725Z,7.61
2022-11-26T18:09:33.796Z,7.58
2022-11-26T18:12:00.992Z,7.53
2022-11-26T18:14:28.454Z,7.46
2022-11-26T18:16:55.397Z,7.50
2022-11-26T18:19:23.369Z,7.49
2022-11-26T18:21:50.611Z,7.45
2022-11-26T18:24:17.529Z,7.40
2022-11-26T18:26:43.847Z,7.45
2022-11-26T18:29:10.815Z,7.47
2022-11-26T18:31:39.665Z,7.52
2022-11-26T18:34:06.638Z,7.52
2022-11-26T18:36:32.973Z,7.45
2022-11-26T18:38:59.340Z,7.40
2022-11-26T18:41:25.714Z,7.34
2022-11-26T18:43:52.034Z,7.36
2022-11-26T18:46:18.772Z,7.33
2022-11-26T18:48:49.727Z,7.34
2022-11-26T18:51:16.858Z,7.28
2022-11-26T18:53:44.264Z,7.24
2022-11-26T18:56:16.273Z,7.29
2022-11-26T18:58:43.080Z,7.32
2022-11-26T19:01:14.940Z,7.29
2022-11-26T19:03:44.132Z,7.23
2022-11-26T19:06:14.346Z,7.17
2022-11-26T19:08:40.864Z,7.20
2022-11-26T19:11:11.888Z,7.24
2022-11-26T19:13:38.580Z,7.20
2022-11-26T19:16:15.831Z,7.10
2022-11-26T19:18:43.184Z,7.06
2022-11-26T19:21:21.614Z,7.12
2022-11-26T19:23:48.806Z,7.06
2022-11-26T19:26:15.680Z,7.05
2022-11-26T19:28:42.394Z,6.94
2022-11-26T19:31:14.472Z,6.92
2022-11-26T19:33:41.601Z,6.89
2022-11-26T19:36:11.068Z,6.88
2022-11-26T19:38:37.897Z,6.92
2022-11-26T19:41:05.247Z,6.87
2022-11-26T19:43:37.085Z,6.83
2022-11-26T19:46:16.951Z,6.85
2022-11-26T19:48:47.294Z,6.84
2022-11-26T19:51:15.299Z,6.80
2022-11-26T19:53:47.492Z,6.78
2022-11-26T19:56:19.642Z,6.70
2022-11-26T19:58:46.496Z,6.64
2022-11-26T20:01:18.244Z,6.66
2022-11-26T20:03:44.719Z,6.58
2022-11-26T20:06:26.040Z,6.53
2022-11-26T20:08:55.055Z,6.48
2022-11-26T20:11:22.674Z,6.49
2022-11-26T20:13:49.980Z,6.45
2022-11-26T20:16:22.123Z,6.53
2022-11-26T20:18:49.229Z,6.57
2022-11-26T20:21:19.740Z,6.48
2022-11-26T20:23:46.820Z,6.38
2022-11-26T20:26:17.270Z,6.38
2022-11-26T20:28:47.454Z,6.32
2022-11-26T20:31:17.250Z,6.35
2022-11-26T20:33:47.560Z,6.30
2022-11-26T20:36:17.962Z,6.32
2022-11-26T20:38:44.355Z,6.24
2022-11-26T20:41:15.885Z,6.19
2022-11-26T20:43:42.860Z,6.27
2022-11-26T20:46:11.413Z,6.24
2022-11-26T20:48:39.724Z,6.23
2022-11-26T20:51:08.770Z,6.23
2022-11-26T20:53:37.225Z,6.16
2022-11-26T20:56:04.752Z,6.11
2022-11-26T20:58:32.316Z,6.05
2022-11-26T21:00:58.840Z,6.04
2022-11-26T21:03:26.999Z,5.99
2022-11-26T21:05:54.168Z,5.99
2022-11-26T21:08:22.781Z,5.99
2022-11-26T21:10:50.082Z,5.96
2022-11-26T21:13:18.716Z,5.97
2022-11-26T21:15:48.998Z,5.95
2022-11-26T21:18:15.388Z,5.97
2022-11-26T21:20:42.848Z,5.99
2022-11-26T21:23:10.567Z,5.96
2022-11-26T21:25:42.173Z,6.01
2022-11-26T21:28:10.712Z,6.00
2022-11-26T21:30:38.093Z,5.97
2022-11-26T21:33:09.084Z,5.96
2022-11-26T21:35:36.907Z,6.01
2022-11-26T21:38:05.164Z,6.02
2022-11-26T21:40:32.968Z,6.01
2022-11-26T21:42:59.358Z,5.99
2022-11-26T21:45:27.471Z,5.98
2022-11-26T21:47:53.850Z,5.96
2022-11-26T21:50:20.232Z,5.92
2022-11-26T21:52:46.623Z,5.90
2022-11-26T21:55:13.074Z,5.96
2022-11-26T21:57:39.395Z,5.91
2022-11-26T22:00:06.415Z,5.90
2022-11-26T22:02:32.786Z,5.91
2022-11-26T22:04:59.178Z,5.98
2022-11-26T22:07:25.612Z,5.85
2022-11-26T22:09:52.151Z,5.90
2022-11-26T22:12:18.560Z,5.86
2022-11-26T22:14:44.898Z,5.91
2022-11-26T22:17:11.296Z,5.92
2022-11-26T22:19:38.139Z,5.97
2022-11-26T22:22:04.686Z,5.93
2022-11-26T22:24:31.166Z,5.83
2022-11-26T22:26:57.569Z,5.89
2022-11-26T22:29:23.928Z,5.85
2022-11-26T22:31:50.439Z,5.85
2022-11-26T22:34:18.708Z,5.87
2022-11-26T22:36:45.548Z,5.90
2022-11-26T22:39:14.186Z,5.86
2022-11-26T22:41:41.669Z,5.83
2022-11-26T22:44:08.633Z,5.82
2022-11-26T22:46:36.057Z,5.81
2022-11-26T22:49:02.786Z,5.81
2022-11-26T22:51:31.397Z,5.80
2022-11-26T22:54:00.504Z,5.73
2022-11-26T22:56:28.381Z,5.67
2022-11-26T22:58:55.088Z,5.72
2022-11-26T23:01:24.117Z,5.64
2022-11-26T23:03:51.746Z,5.61
2022-11-26T23:06:19.909Z,5.46
2022-11-26T23:08:46.514Z,5.43
2022-11-26T23:11:16.284Z,5.40
2022-11-26T23:13:44.296Z,5.43
2022-11-26T23:16:11.068Z,5.45
2022-11-26T23:18:38.340Z,5.45
2022-11-26T23:21:08.030Z,5.41
2022-11-26T23:23:36.078Z,5.41
2022-11-26T23:26:03.203Z,5.38
2022-11-26T23:28:31.606Z,5.44
2022-11-26T23:31:06.196Z,5.36
2022-11-26T23:33:33.401Z,5.34
2022-11-26T23:35:59.893Z,5.33
2022-11-26T23:38:26.454Z,5.27
2022-11-26T23:40:58.321Z,5.27
2022-11-26T23:43:26.241Z,5.21
2022-11-26T23:46:02.332Z,5.28
2022-11-26T23:48:29.192Z,5.24
2022-11-26T23:50:56.031Z,5.23
2022-11-26T23:53:22.620Z,5.23
2022-11-26T23:55:48.965Z,5.25
2022-11-26T23:58:16.456Z,5.27
